createdAt,value
2018-03-28T00:01:07.801Z,49.60
2018-03-28T00:03:35.195Z,36.20
2018-03-28T00:06:03.496Z,38.93
2018-03-28T00:08:30.893Z,45.97
2018-03-28T00:10:58.288Z,41.33
2018-03-28T00:13:25.694Z,39.77
2018-03-28T00:15:53.092Z,43.00
2018-03-28T00:18:20.500Z,40.93
2018-03-28T00:20:47.901Z,50.43
2018-03-28T00:23:15.300Z,66.67
2018-03-28T00:25:42.700Z,71.23
2018-03-28T00:28:10.100Z,49.00
2018-03-28T00:30:37.514Z,47.53
2018-03-28T00:33:04.909Z,57.50
2018-03-28T00:35:32.300Z,41.30
2018-03-28T00:37:59.704Z,45.90
2018-03-28T00:40:27.097Z,39.10
2018-03-28T00:42:54.518Z,47.70
2018-03-28T00:45:21.915Z,44.43
2018-03-28T00:47:49.306Z,42.70
2018-03-28T00:50:16.713Z,46.97
2018-03-28T00:52:44.110Z,34.93
2018-03-28T00:55:11.535Z,40.83
2018-03-28T00:57:38.931Z,31.43
2018-03-28T01:00:06.328Z,30.00
2018-03-28T01:02:33.733Z,30.03
2018-03-28T01:05:01.131Z,27.50
2018-03-28T01:07:28.548Z,28.60
2018-03-28T01:09:55.944Z,24.40
2018-03-28T01:12:23.344Z,23.10
2018-03-28T01:14:50.748Z,30.53
2018-03-28T01:17:18.140Z,28.90
2018-03-28T01:19:45.556Z,31.90
2018-03-28T01:22:12.960Z,24.47
2018-03-28T01:24:40.339Z,21.63
2018-03-28T01:27:07.745Z,22.00
2018-03-28T01:29:35.151Z,22.23
2018-03-28T01:32:02.552Z,19.97
2018-03-28T01:34:29.965Z,20.50
2018-03-28T01:36:57.368Z,17.70
2018-03-28T01:39:24.768Z,17.20
2018-03-28T01:41:52.168Z,19.60
2018-03-28T01:44:19.575Z,23.57
2018-03-28T01:46:46.976Z,19.80
2018-03-28T01:49:14.371Z,17.10
2018-03-28T01:51:41.780Z,23.23
2018-03-28T01:54:09.176Z,19.20
2018-03-28T01:56:36.567Z,14.20
2018-03-28T01:59:03.980Z,24.03
2018-03-28T02:01:31.377Z,18.90
2018-03-28T02:03:58.774Z,14.20
2018-03-28T02:06:26.191Z,15.27
2018-03-28T02:08:53.620Z,16.10
2018-03-28T02:11:21.012Z,21.53
2018-03-28T02:13:48.417Z,15.53
2018-03-28T02:16:15.821Z,22.03
2018-03-28T02:18:43.209Z,13.57
2018-03-28T02:21:10.617Z,16.30
2018-03-28T02:23:38.015Z,14.67
2018-03-28T02:26:05.401Z,17.40
2018-03-28T02:28:33.638Z,14.70
2018-03-28T02:31:01.029Z,15.20
2018-03-28T02:33:28.415Z,12.30
2018-03-28T02:35:55.821Z,14.83
2018-03-28T02:38:23.228Z,12.60
2018-03-28T02:40:50.626Z,13.33
2018-03-28T02:43:18.023Z,12.57
2018-03-28T02:45:45.540Z,17.60
2018-03-28T02:48:13.029Z,13.83
2018-03-28T02:50:40.650Z,14.40
2018-03-28T02:53:08.177Z,13.73
2018-03-28T02:55:35.633Z,14.40
2018-03-28T02:58:03.108Z,18.63
2018-03-28T03:00:30.569Z,15.10
2018-03-28T03:02:57.956Z,12.40
2018-03-28T03:05:25.374Z,12.23
2018-03-28T03:07:52.764Z,14.50
2018-03-28T03:10:20.155Z,10.20
2018-03-28T03:12:47.556Z,14.90
2018-03-28T03:15:14.948Z,13.17
2018-03-28T03:17:42.331Z,27.63
2018-03-28T03:20:09.745Z,17.27
2018-03-28T03:22:37.142Z,16.43
2018-03-28T03:25:04.548Z,20.40
2018-03-28T03:27:31.960Z,16.67
2018-03-28T03:29:59.365Z,11.13
2018-03-28T03:32:26.748Z,14.83
2018-03-28T03:34:54.156Z,15.93
2018-03-28T03:37:21.539Z,12.10
2018-03-28T03:39:48.936Z,10.73
2018-03-28T03:42:16.339Z,11.07
2018-03-28T03:44:43.734Z,11.93
2018-03-28T03:47:11.145Z,11.70
2018-03-28T03:49:45.344Z,12.83
2018-03-28T03:52:12.736Z,12.47
2018-03-28T03:54:40.133Z,10.80
2018-03-28T03:57:07.547Z,10.37
2018-03-28T03:59:34.940Z,11.10
2018-03-28T04:02:02.333Z,9.73
2018-03-28T04:04:29.751Z,8.60
2018-03-28T04:06:57.129Z,11.67
2018-03-28T04:09:24.517Z,10.23
2018-03-28T04:11:51.928Z,10.13
2018-03-28T04:14:19.319Z,9.70
2018-03-28T04:16:46.712Z,7.50
2018-03-28T04:19:14.120Z,10.90
2018-03-28T04:21:41.504Z,11.00
2018-03-28T04:24:08.892Z,8.17
2018-03-28T04:26:36.304Z,10.33
2018-03-28T04:29:03.703Z,10.90
2018-03-28T04:31:31.088Z,12.30
2018-03-28T04:33:58.492Z,9.00
2018-03-28T04:36:25.889Z,10.10
2018-03-28T04:38:53.291Z,11.33
2018-03-28T04:41:20.701Z,10.50
2018-03-28T04:43:48.102Z,10.40
2018-03-28T04:46:15.489Z,9.80
2018-03-28T04:48:42.893Z,13.93
2018-03-28T04:51:10.280Z,11.60
2018-03-28T04:53:37.680Z,13.37
2018-03-28T04:56:05.089Z,9.80
2018-03-28T04:58:32.497Z,11.27
2018-03-28T05:00:59.889Z,9.87
2018-03-28T05:03:27.300Z,12.83
2018-03-28T05:05:54.696Z,11.17
2018-03-28T05:08:22.090Z,16.90
2018-03-28T05:10:49.505Z,12.70
2018-03-28T05:13:16.929Z,14.90
2018-03-28T05:15:44.387Z,17.73
2018-03-28T05:18:11.742Z,16.23
2018-03-28T05:20:39.148Z,17.17
2018-03-28T05:23:06.552Z,13.97
2018-03-28T05:25:33.964Z,18.80
2018-03-28T05:28:01.402Z,16.00
2018-03-28T05:30:28.777Z,19.33
2018-03-28T05:32:56.184Z,15.83
2018-03-28T05:35:23.580Z,19.90
2018-03-28T05:37:50.980Z,23.80
2018-03-28T05:40:18.392Z,15.70
2018-03-28T05:42:45.866Z,23.13
2018-03-28T05:45:13.209Z,17.47
2018-03-28T05:47:40.622Z,20.57
2018-03-28T05:50:08.022Z,21.87
2018-03-28T05:52:35.412Z,18.27
2018-03-28T05:55:02.929Z,15.77
2018-03-28T05:57:30.313Z,22.20
2018-03-28T05:59:57.723Z,24.67
2018-03-28T06:02:25.134Z,18.00
2018-03-28T06:04:52.536Z,21.10
2018-03-28T06:07:19.965Z,19.40
2018-03-28T06:09:47.348Z,19.87
2018-03-28T06:12:14.739Z,23.90
2018-03-28T06:14:42.148Z,19.77
2018-03-28T06:17:09.561Z,17.67
2018-03-28T06:19:36.952Z,13.50
2018-03-28T06:22:04.372Z,15.30
2018-03-28T06:24:31.784Z,17.33
2018-03-28T06:26:59.186Z,23.67
2018-03-28T06:29:26.584Z,19.20
2018-03-28T06:31:54.006Z,17.40
2018-03-28T06:34:21.400Z,24.03
2018-03-28T06:36:48.802Z,21.07
2018-03-28T06:39:16.230Z,25.73
2018-03-28T06:41:43.626Z,19.40
2018-03-28T06:44:11.034Z,19.93
2018-03-28T06:46:38.451Z,16.37
2018-03-28T06:49:05.848Z,22.03
2018-03-28T06:51:33.258Z,27.23
2018-03-28T06:54:00.677Z,26.33
2018-03-28T06:56:28.124Z,26.83
2018-03-28T06:58:55.521Z,26.30
2018-03-28T07:01:22.941Z,33.00
2018-03-28T07:03:50.351Z,31.40
2018-03-28T07:06:17.761Z,24.50
2018-03-28T07:08:45.172Z,26.27
2018-03-28T07:11:12.584Z,24.27
2018-03-28T07:13:39.972Z,19.60
2018-03-28T07:16:07.766Z,26.23
2018-03-28T07:18:35.181Z,44.27
2018-03-28T07:21:02.584Z,34.00
2018-03-28T07:23:29.997Z,16.13
2018-03-28T07:25:57.396Z,33.67
2018-03-28T07:28:24.796Z,22.73
2018-03-28T07:30:52.213Z,28.03
2018-03-28T07:33:19.637Z,20.07
2018-03-28T07:35:47.037Z,20.53
2018-03-28T07:38:14.457Z,18.77
2018-03-28T07:40:41.863Z,27.57
2018-03-28T07:43:09.269Z,29.00
2018-03-28T07:45:36.676Z,17.53
2018-03-28T07:48:04.087Z,19.03
2018-03-28T07:50:31.475Z,14.57
2018-03-28T07:52:58.901Z,18.53
2018-03-28T07:55:26.368Z,17.67
2018-03-28T07:57:53.752Z,17.07
2018-03-28T08:00:21.205Z,19.20
2018-03-28T08:02:48.593Z,20.20
2018-03-28T08:05:16.012Z,29.03
2018-03-28T08:07:43.420Z,11.60
2018-03-28T08:10:10.826Z,21.63
2018-03-28T08:12:38.233Z,16.23
2018-03-28T08:15:05.654Z,34.73
2018-03-28T08:17:33.070Z,21.93
2018-03-28T08:20:00.456Z,16.80
2018-03-28T08:22:27.880Z,13.07
2018-03-28T08:24:55.276Z,15.07
2018-03-28T08:27:22.668Z,16.00
2018-03-28T08:29:50.084Z,14.17
2018-03-28T08:32:17.486Z,15.20
2018-03-28T08:34:44.890Z,17.63
2018-03-28T08:37:12.297Z,15.80
2018-03-28T08:39:39.691Z,14.73
2018-03-28T08:42:07.096Z,17.07
2018-03-28T08:44:34.504Z,12.43
2018-03-28T08:47:01.908Z,11.20
2018-03-28T08:49:29.309Z,21.03
2018-03-28T08:51:56.723Z,18.50
2018-03-28T08:54:24.125Z,10.97
2018-03-28T08:56:51.546Z,11.70
2018-03-28T08:59:18.948Z,12.13
2018-03-28T09:01:46.344Z,13.33
2018-03-28T09:04:13.762Z,18.43
2018-03-28T09:06:41.612Z,13.33
2018-03-28T09:09:09.170Z,12.03
2018-03-28T09:11:36.593Z,14.53
2018-03-28T09:14:03.992Z,9.60
2018-03-28T09:16:31.393Z,15.63
2018-03-28T09:18:58.793Z,9.10
2018-03-28T09:21:26.205Z,15.13
2018-03-28T09:23:53.605Z,16.60
2018-03-28T09:26:21.009Z,19.23
2018-03-28T09:28:48.428Z,24.00
2018-03-28T09:31:15.828Z,20.30
2018-03-28T09:33:43.220Z,20.30
2018-03-28T09:36:10.666Z,28.40
2018-03-28T09:38:38.052Z,31.90
2018-03-28T09:41:05.459Z,27.57
2018-03-28T09:43:32.877Z,29.27
2018-03-28T09:46:00.292Z,28.17
2018-03-28T09:48:27.702Z,27.97
2018-03-28T09:50:55.110Z,35.83
2018-03-28T09:53:22.509Z,32.47
2018-03-28T09:55:49.915Z,26.57
2018-03-28T09:58:17.335Z,27.50
2018-03-28T10:00:45.544Z,26.63
2018-03-28T10:03:12.951Z,29.37
2018-03-28T10:05:40.378Z,31.93
2018-03-28T10:08:07.777Z,18.03
2018-03-28T10:10:35.185Z,11.30
2018-03-28T10:13:02.612Z,24.10
2018-03-28T10:15:30.013Z,10.20
2018-03-28T10:17:57.416Z,9.63
2018-03-28T10:20:24.841Z,6.67
2018-03-28T10:22:52.233Z,5.63
2018-03-28T10:25:19.629Z,7.50
2018-03-28T10:27:47.040Z,4.93
2018-03-28T10:30:14.432Z,9.73
2018-03-28T10:32:41.827Z,4.80
2018-03-28T10:35:09.273Z,5.97
2018-03-28T10:37:37.564Z,4.80
2018-03-28T10:40:04.967Z,6.27
2018-03-28T10:42:32.374Z,6.53
2018-03-28T10:44:59.781Z,7.80
2018-03-28T10:47:27.173Z,4.73
2018-03-28T10:49:54.597Z,5.90
2018-03-28T10:52:22.004Z,4.73
2018-03-28T10:54:49.402Z,4.43
2018-03-28T10:57:16.856Z,4.83
2018-03-28T10:59:44.244Z,4.50
2018-03-28T11:02:11.637Z,5.47
2018-03-28T11:04:39.055Z,3.73
2018-03-28T11:07:06.445Z,9.00
2018-03-28T11:09:33.853Z,4.13
2018-03-28T11:12:01.253Z,5.07
2018-03-28T11:14:28.655Z,6.53
2018-03-28T11:16:56.048Z,3.90
2018-03-28T11:19:23.473Z,4.37
2018-03-28T11:21:50.863Z,4.17
2018-03-28T11:24:18.257Z,4.07
2018-03-28T11:26:45.685Z,4.00
2018-03-28T11:29:13.077Z,4.03
2018-03-28T11:31:40.473Z,3.97
2018-03-28T11:34:07.890Z,10.27
2018-03-28T11:36:35.285Z,3.53
2018-03-28T11:39:02.685Z,16.43
2018-03-28T11:41:30.093Z,4.07
2018-03-28T11:43:57.488Z,4.00
2018-03-28T11:46:24.886Z,6.87
2018-03-28T11:48:52.303Z,10.20
2018-03-28T11:51:19.698Z,4.67
2018-03-28T11:53:47.105Z,6.63
2018-03-28T11:56:14.522Z,8.10
2018-03-28T11:58:41.937Z,5.43
2018-03-28T12:01:09.353Z,7.63
2018-03-28T12:03:36.763Z,7.07
2018-03-28T12:06:04.152Z,4.80
2018-03-28T12:08:31.549Z,5.30
2018-03-28T12:10:58.957Z,7.17
2018-03-28T12:13:26.374Z,5.00
2018-03-28T12:15:53.760Z,4.90
2018-03-28T12:18:21.174Z,9.07
2018-03-28T12:20:48.574Z,5.40
2018-03-28T12:23:15.965Z,5.90
2018-03-28T12:25:43.376Z,5.40
2018-03-28T12:28:10.778Z,5.30
2018-03-28T12:30:38.178Z,6.40
2018-03-28T12:33:06.493Z,6.10
2018-03-28T12:35:33.893Z,5.10
2018-03-28T12:38:01.288Z,5.23
2018-03-28T12:40:28.712Z,8.20
2018-03-28T12:42:56.106Z,5.67
2018-03-28T12:45:23.501Z,16.83
2018-03-28T12:47:50.908Z,6.70
2018-03-28T12:50:18.308Z,15.33
2018-03-28T12:52:45.756Z,18.20
2018-03-28T12:55:13.156Z,8.00
2018-03-28T12:57:40.548Z,12.87
2018-03-28T13:00:07.961Z,5.83
2018-03-28T13:02:35.373Z,7.00
2018-03-28T13:05:02.764Z,9.93
2018-03-28T13:07:30.162Z,5.43
2018-03-28T13:09:57.580Z,4.80
2018-03-28T13:12:24.973Z,5.23
2018-03-28T13:14:52.364Z,5.83
2018-03-28T13:17:19.775Z,10.73
2018-03-28T13:19:47.170Z,4.93
2018-03-28T13:22:14.595Z,5.00
2018-03-28T13:24:42.001Z,7.23
2018-03-28T13:27:09.413Z,13.03
2018-03-28T13:29:36.812Z,7.20
2018-03-28T13:32:04.233Z,5.17
2018-03-28T13:34:31.633Z,6.03
2018-03-28T13:36:59.050Z,8.57
2018-03-28T13:39:26.470Z,6.47
2018-03-28T13:41:53.860Z,5.23
2018-03-28T13:44:21.261Z,6.20
2018-03-28T13:46:48.670Z,5.03
2018-03-28T13:49:16.060Z,6.00
2018-03-28T13:51:43.465Z,4.97
2018-03-28T13:54:10.878Z,9.23
2018-03-28T13:56:38.278Z,4.80
2018-03-28T13:59:05.669Z,7.57
2018-03-28T14:01:33.076Z,5.20
2018-03-28T14:04:00.468Z,5.77
2018-03-28T14:06:27.886Z,15.47
2018-03-28T14:08:55.291Z,7.70
2018-03-28T14:11:22.697Z,4.40
2018-03-28T14:13:50.094Z,11.50
2018-03-28T14:16:17.509Z,4.87
2018-03-28T14:18:44.903Z,4.07
2018-03-28T14:21:12.297Z,5.17
2018-03-28T14:23:39.705Z,4.40
2018-03-28T14:26:07.092Z,4.83
2018-03-28T14:28:34.487Z,13.53
2018-03-28T14:31:01.927Z,11.30
2018-03-28T14:33:29.354Z,6.80
2018-03-28T14:35:56.825Z,8.00
2018-03-28T14:38:24.220Z,8.73
2018-03-28T14:40:51.617Z,6.73
2018-03-28T14:43:19.014Z,7.43
2018-03-28T14:45:46.426Z,4.80
2018-03-28T14:48:13.828Z,11.37
2018-03-28T14:50:41.231Z,8.83
2018-03-28T14:53:08.673Z,9.27
2018-03-28T14:55:36.053Z,17.50
2018-03-28T14:58:03.444Z,23.00
2018-03-28T15:00:30.862Z,14.77
2018-03-28T15:02:58.274Z,11.37
2018-03-28T15:05:25.662Z,11.03
2018-03-28T15:07:53.078Z,8.67
2018-03-28T15:10:20.475Z,5.47
2018-03-28T15:12:47.874Z,5.70
2018-03-28T15:15:15.280Z,5.40
2018-03-28T15:17:42.726Z,4.63
2018-03-28T15:20:10.117Z,4.70
2018-03-28T15:22:37.660Z,5.10
2018-03-28T15:25:05.053Z,4.70
2018-03-28T15:27:32.572Z,5.17
2018-03-28T15:30:00.044Z,7.40
2018-03-28T15:32:27.444Z,5.37
2018-03-28T15:34:54.947Z,4.73
2018-03-28T15:37:22.453Z,5.07
2018-03-28T15:39:49.913Z,5.03
2018-03-28T15:42:17.391Z,6.53
2018-03-28T15:44:44.925Z,9.97
2018-03-28T15:47:12.349Z,10.03
2018-03-28T15:49:39.755Z,4.90
2018-03-28T15:52:07.192Z,12.70
2018-03-28T15:54:34.585Z,4.83
2018-03-28T15:57:02.027Z,5.53
2018-03-28T15:59:29.405Z,4.33
2018-03-28T16:01:56.806Z,7.50
2018-03-28T16:04:24.204Z,7.60
2018-03-28T16:06:51.623Z,11.93
2018-03-28T16:09:19.020Z,12.73
2018-03-28T16:11:46.429Z,4.00
2018-03-28T16:14:13.849Z,6.40
2018-03-28T16:16:41.245Z,8.80
2018-03-28T16:19:08.640Z,4.93
2018-03-28T16:21:36.175Z,11.20
2018-03-28T16:24:03.574Z,5.03
2018-03-28T16:26:30.956Z,4.57
2018-03-28T16:28:58.370Z,5.53
2018-03-28T16:31:25.767Z,10.10
2018-03-28T16:33:53.165Z,5.17
2018-03-28T16:36:20.582Z,11.07
2018-03-28T16:38:47.979Z,6.43
2018-03-28T16:41:15.393Z,5.40
2018-03-28T16:43:42.809Z,4.70
2018-03-28T16:46:10.209Z,5.40
2018-03-28T16:48:37.605Z,5.60
2018-03-28T16:51:05.067Z,6.57
2018-03-28T16:53:32.453Z,5.87
2018-03-28T16:55:59.849Z,5.37
2018-03-28T16:58:27.257Z,13.43
2018-03-28T17:00:54.648Z,4.30
2018-03-28T17:03:22.056Z,10.13
2018-03-28T17:05:49.462Z,7.40
2018-03-28T17:08:16.869Z,4.50
2018-03-28T17:10:44.276Z,11.07
2018-03-28T17:13:11.800Z,4.30
2018-03-28T17:15:39.190Z,6.13
2018-03-28T17:18:06.590Z,5.20
2018-03-28T17:20:34.004Z,3.90
2018-03-28T17:23:01.396Z,4.27
2018-03-28T17:25:28.796Z,7.00
2018-03-28T17:27:56.210Z,3.83
2018-03-28T17:30:23.604Z,6.43
2018-03-28T17:32:50.999Z,6.47
2018-03-28T17:35:18.411Z,6.07
2018-03-28T17:37:45.809Z,5.30
2018-03-28T17:40:13.208Z,6.20
2018-03-28T17:42:40.621Z,4.33
2018-03-28T17:45:08.051Z,8.20
2018-03-28T17:47:35.419Z,10.90
2018-03-28T17:50:02.990Z,11.90
2018-03-28T17:52:30.377Z,6.90
2018-03-28T17:54:57.786Z,14.67
2018-03-28T17:57:25.197Z,8.13
2018-03-28T17:59:52.597Z,4.43
2018-03-28T18:02:19.984Z,6.80
2018-03-28T18:04:47.417Z,4.40
2018-03-28T18:07:14.813Z,5.03
2018-03-28T18:09:42.221Z,7.83
2018-03-28T18:12:09.635Z,10.10
2018-03-28T18:14:37.033Z,4.50
2018-03-28T18:17:04.424Z,4.70
2018-03-28T18:19:33.007Z,6.10
2018-03-28T18:22:01.732Z,3.90
2018-03-28T18:24:31.579Z,4.40
2018-03-28T18:26:59.321Z,4.10
2018-03-28T18:29:27.473Z,7.03
2018-03-28T18:31:54.893Z,4.33
2018-03-28T18:34:23.110Z,3.90
2018-03-28T18:36:50.722Z,4.73
2018-03-28T18:39:18.124Z,7.10
2018-03-28T18:41:45.558Z,3.77
2018-03-28T18:44:13.242Z,4.57
2018-03-28T18:46:41.009Z,4.50
2018-03-28T18:49:08.440Z,4.60
2018-03-28T18:51:37.643Z,4.27
2018-03-28T18:54:05.317Z,3.60
2018-03-28T18:56:33.664Z,3.70
2018-03-28T18:59:01.296Z,4.00
2018-03-28T19:01:28.692Z,3.50
2018-03-28T19:03:56.138Z,3.30
2018-03-28T19:06:23.525Z,3.63
2018-03-28T19:08:50.997Z,3.70
2018-03-28T19:11:18.405Z,3.50
2018-03-28T19:13:45.868Z,3.27
2018-03-28T19:16:13.290Z,3.50
2018-03-28T19:18:40.800Z,4.50
2018-03-28T19:21:08.765Z,6.50
2018-03-28T19:23:36.506Z,3.50
2018-03-28T19:26:04.028Z,4.40
2018-03-28T19:28:31.758Z,8.20
2018-03-28T19:30:59.677Z,4.90
2018-03-28T19:33:27.430Z,4.70
2018-03-28T19:35:55.280Z,4.40
2018-03-28T19:38:22.801Z,7.43
2018-03-28T19:40:50.594Z,4.23
2018-03-28T19:43:18.127Z,4.10
2018-03-28T19:45:45.672Z,4.53
2018-03-28T19:48:13.650Z,5.33
2018-03-28T19:50:41.442Z,5.07
2018-03-28T19:53:09.160Z,10.03
2018-03-28T19:55:37.041Z,10.87
2018-03-28T19:58:04.971Z,7.70
2018-03-28T20:00:33.026Z,4.50
2018-03-28T20:03:00.807Z,7.50
2018-03-28T20:05:28.288Z,12.80
2018-03-28T20:07:55.869Z,3.83
2018-03-28T20:10:23.603Z,9.47
2018-03-28T20:12:51.245Z,7.70
2018-03-28T20:15:18.746Z,7.00
2018-03-28T20:17:46.342Z,8.87
2018-03-28T20:20:13.901Z,5.90
2018-03-28T20:22:41.372Z,14.40
2018-03-28T20:25:08.917Z,11.50
2018-03-28T20:27:36.454Z,4.30
2018-03-28T20:30:03.907Z,4.93
2018-03-28T20:32:31.418Z,4.00
2018-03-28T20:34:58.852Z,4.10
2018-03-28T20:37:26.268Z,5.20
2018-03-28T20:39:53.767Z,4.53
2018-03-28T20:42:21.182Z,3.97
2018-03-28T20:44:48.591Z,3.77
2018-03-28T20:47:15.995Z,4.63
2018-03-28T20:49:43.384Z,4.43
2018-03-28T20:52:10.789Z,5.00
2018-03-28T20:54:38.198Z,4.37
2018-03-28T20:57:05.600Z,5.90
2018-03-28T20:59:32.988Z,5.20
2018-03-28T21:02:00.398Z,5.27
2018-03-28T21:04:27.796Z,5.20
2018-03-28T21:06:55.335Z,4.67
2018-03-28T21:09:22.741Z,5.60
2018-03-28T21:11:50.141Z,4.90
2018-03-28T21:14:17.532Z,5.27
2018-03-28T21:16:45.275Z,5.73
2018-03-28T21:19:12.700Z,5.70
2018-03-28T21:21:40.109Z,5.10
2018-03-28T21:24:07.527Z,5.70
2018-03-28T21:26:35.079Z,5.53
2018-03-28T21:29:02.953Z,5.27
2018-03-28T21:31:30.477Z,5.90
2018-03-28T21:33:58.044Z,4.90
2018-03-28T21:36:25.513Z,6.27
2018-03-28T21:38:52.927Z,5.50
2018-03-28T21:41:20.323Z,7.70
2018-03-28T21:43:47.726Z,5.33
2018-03-28T21:46:16.678Z,6.90
2018-03-28T21:48:46.389Z,7.00
2018-03-28T21:51:13.791Z,6.93
2018-03-28T21:53:41.667Z,7.10
2018-03-28T21:56:09.719Z,8.07
2018-03-28T21:58:37.389Z,7.77
2018-03-28T22:01:05.141Z,7.60
2018-03-28T22:03:32.560Z,8.33
2018-03-28T22:05:59.957Z,8.03
2018-03-28T22:08:27.360Z,13.23
2018-03-28T22:10:54.756Z,11.30
2018-03-28T22:13:22.144Z,10.23
2018-03-28T22:15:49.561Z,9.80
2018-03-28T22:18:16.948Z,8.63
2018-03-28T22:20:44.355Z,11.40
2018-03-28T22:23:11.752Z,9.30
2018-03-28T22:25:39.280Z,9.83
2018-03-28T22:28:06.759Z,10.63
2018-03-28T22:30:34.185Z,13.73
2018-03-28T22:33:01.577Z,8.77
2018-03-28T22:35:28.960Z,9.10
2018-03-28T22:37:56.355Z,8.07
2018-03-28T22:40:23.761Z,10.57
2018-03-28T22:42:53.523Z,7.93
2018-03-28T22:45:21.786Z,7.20
2018-03-28T22:47:49.233Z,6.97
2018-03-28T22:50:16.712Z,6.40
2018-03-28T22:52:44.312Z,10.37
2018-03-28T22:55:11.923Z,9.93
2018-03-28T22:57:39.329Z,8.20
2018-03-28T23:00:06.729Z,26.77
2018-03-28T23:02:34.340Z,6.17
2018-03-28T23:05:01.729Z,7.40
2018-03-28T23:07:29.142Z,8.50
2018-03-28T23:09:56.565Z,6.80
2018-03-28T23:12:23.957Z,7.70
2018-03-28T23:14:51.369Z,10.13
2018-03-28T23:17:18.780Z,10.63
2018-03-28T23:19:46.469Z,8.83
2018-03-28T23:22:25.673Z,7.80
2018-03-28T23:24:53.060Z,8.10
2018-03-28T23:27:20.453Z,8.10
2018-03-28T23:29:47.865Z,7.80
2018-03-28T23:32:15.273Z,7.50
2018-03-28T23:34:42.817Z,7.03
2018-03-28T23:37:10.239Z,7.57
2018-03-28T23:39:37.721Z,7.97
2018-03-28T23:42:05.328Z,8.27
2018-03-28T23:44:32.723Z,11.20
2018-03-28T23:47:00.118Z,8.70
2018-03-28T23:49:27.515Z,8.00
2018-03-28T23:51:54.915Z,7.70
2018-03-28T23:54:22.324Z,7.97
2018-03-28T23:56:49.722Z,10.47
2018-03-28T23:59:17.127Z,7.63
